Página principal
METAR-TAF:

METAR-TAF

Aeroportos :

Aeroporto Internacional de Mitiga

Trípoli, Líbia

latitude: 32-54N, longitude: 13-17E, altura: 11 m

METAR: em falta

Hora: 22:22 (20:22 UTC)

Previsão

O boletim foi feito há 3 horas e 22 minutos, às 17:00 UTC
Previsão válida de 17 às 18 UTC a 18 às 18 UTC
Vento 10 kt de este
Visibilidade: 8000 m
Nuvens dispersasa uma altura de 2500 ft
Tornando-se
de 17 às 20 UTC a 17 às 22 UTC
Vento 2 kt com direcção variável
Probabilidade 30%
de 18 às 02 UTC a 18 às 06 UTC
Visibilidade: 5000 m
neblina
Tornando-se
de 18 às 15 UTC a 18 às 17 UTC
Vento 12 kt de este

TAF: HLLM 171700Z 1718/1818 09010KT 8000 SCT025 BECMG 1720/1722 VRB02KT PROB30 1802/1806 5000 BR BECMG 1815/1817 08012KT

Observações e previsões do tempo de mais de 4000 aeroportos (mensagens METAR e TAF).

As estações disponíveis são os pontos amarelos e vermelhos sobre o mapa.

Mova o rato sobre o mapa para ver o nome da estação.

Depois clique no ponto para visualizar as observações e previsões meteorológicas.

Para alterar o mapa : clique nos botões verdes com uma cruz preta para aumentar o zoom; no botão verde com uma pitada de zoom; ou nas setas verdes para mapas adjacentes.


METAR-TAF: